Time;durP1;ratioP1;P1;durP2;ratioP2;P2;SDS_P1;SDS_P2;PMS_P1;PMS_P2;Temp;Humidity;BMP_temperature;BMP_pressure;BME280_temperature;BME280_humidity;BME280_pressure;Samples;Min_cycle;Max_cycle;Signal;HPM_P1;HPM_P2
2023/03/20 00:01:28;;;;;;;8.50;6.85;;;10.80;99.90;;;;;;5019096;28;20237;-91
2023/03/20 00:03:55;;;;;;;8.90;7.18;;;10.80;99.90;;;;;;5019119;28;20171;-89
2023/03/20 00:06:24;;;;;;;9.82;6.95;;;10.80;99.90;;;;;;5017878;28;20218;-89
2023/03/20 00:08:53;;;;;;;8.88;6.60;;;10.70;99.90;;;;;;5036095;28;20178;-90
2023/03/20 00:11:35;;;;;;;8.65;6.93;;;10.70;99.90;;;;;;5018850;28;20225;-88
2023/03/20 00:14:13;;;;;;;9.00;7.18;;;10.70;99.90;;;;;;5018893;28;20257;-89
2023/03/20 00:16:42;;;;;;;9.57;7.18;;;10.70;99.90;;;;;;5036464;28;20667;-89
2023/03/20 00:19:24;;;;;;;9.85;6.97;;;10.70;99.90;;;;;;5035792;28;20163;-89
2023/03/20 00:21:51;;;;;;;9.57;6.93;;;10.70;99.90;;;;;;5017600;28;20174;-88
2023/03/20 00:24:17;;;;;;;8.45;6.68;;;10.70;99.90;;;;;;5036150;28;20182;-90
2023/03/20 00:26:45;;;;;;;8.55;6.70;;;10.60;99.90;;;;;;5035430;28;20272;-89
2023/03/20 00:29:33;;;;;;;8.13;6.68;;;10.60;99.90;;;;;;5018330;28;20178;-89
2023/03/20 00:31:58;;;;;;;8.68;7.15;;;10.60;99.90;;;;;;5017696;28;20167;-90
2023/03/20 00:34:31;;;;;;;9.35;7.68;;;10.60;99.90;;;;;;5017790;28;20644;-89
2023/03/20 00:36:57;;;;;;;8.80;7.15;;;10.60;99.90;;;;;;5018039;28;20170;-89
2023/03/20 00:39:23;;;;;;;10.00;7.57;;;10.60;99.90;;;;;;5017329;28;20613;-89
2023/03/20 00:41:55;;;;;;;11.48;7.70;;;10.50;99.90;;;;;;5018304;28;20183;-89
2023/03/20 00:44:29;;;;;;;10.93;7.90;;;10.50;99.90;;;;;;5017014;28;20179;-88
2023/03/20 00:46:57;;;;;;;10.35;7.75;;;10.50;99.90;;;;;;5017461;28;20206;-89
2023/03/20 00:49:28;;;;;;;12.63;7.85;;;10.50;99.90;;;;;;5035564;28;20220;-89
2023/03/20 00:51:54;;;;;;;9.13;7.40;;;10.50;99.90;;;;;;5009514;28;20271;-89
2023/03/20 00:54:20;;;;;;;11.93;7.75;;;10.50;99.90;;;;;;5024785;28;20191;-89
2023/03/20 00:56:56;;;;;;;11.13;7.85;;;10.40;99.90;;;;;;5017779;28;20605;-89
2023/03/20 00:59:25;;;;;;;12.65;8.07;;;10.40;99.90;;;;;;5034785;28;20155;-89
2023/03/20 01:01:51;;;;;;;9.30;8.00;;;10.40;99.90;;;;;;5017251;28;20170;-88
2023/03/20 01:04:19;;;;;;;11.63;8.15;;;10.40;99.90;;;;;;5035184;28;20213;-88
2023/03/20 01:06:45;;;;;;;14.43;8.25;;;10.40;99.90;;;;;;5034758;28;20202;-87
2023/03/20 01:09:16;;;;;;;11.80;8.32;;;10.40;99.90;;;;;;5035106;28;20182;-88
2023/03/20 01:11:44;;;;;;;12.15;8.27;;;10.40;99.90;;;;;;5017058;28;20170;-89
2023/03/20 01:14:13;;;;;;;10.50;8.15;;;10.30;99.90;;;;;;5017434;28;20178;-87
2023/03/20 01:16:39;;;;;;;12.00;8.35;;;10.30;99.90;;;;;;5017759;28;20189;-89
2023/03/20 01:19:13;;;;;;;15.23;8.90;;;10.30;99.90;;;;;;5034044;28;20186;-90
2023/03/20 01:21:40;;;;;;;15.15;8.15;;;10.20;99.90;;;;;;5017277;28;20186;-89
2023/03/20 01:24:06;;;;;;;11.80;8.63;;;10.20;99.90;;;;;;5017633;28;20190;-89
2023/03/20 01:26:42;;;;;;;13.18;9.27;;;10.20;99.90;;;;;;5035233;28;20675;-89
2023/03/20 01:29:18;;;;;;;13.82;8.88;;;10.20;99.90;;;;;;5016956;28;20170;-89
2023/03/20 01:31:44;;;;;;;11.80;8.85;;;10.10;99.90;;;;;;5016661;28;20181;-89
2023/03/20 01:34:10;;;;;;;14.07;9.40;;;10.10;99.90;;;;;;5034889;28;20174;-88
2023/03/20 01:36:37;;;;;;;14.32;9.15;;;10.10;99.90;;;;;;5017124;28;20192;-89
2023/03/20 01:39:06;;;;;;;12.60;9.38;;;10.00;99.90;;;;;;5034500;28;20294;-89
2023/03/20 01:41:32;;;;;;;14.90;10.43;;;10.00;99.90;;;;;;4993995;28;20195;-88
2023/03/20 01:44:12;;;;;;;13.05;9.65;;;10.00;99.90;;;;;;4994877;28;20176;-88
2023/03/20 01:46:39;;;;;;;15.80;10.63;;;10.10;99.90;;;;;;5001424;28;20208;-89
2023/03/20 01:51:40;;;;;;;18.52;13.25;;;10.10;99.90;;;;;;5174055;23;20250;-82
2023/03/20 01:54:17;;;;;;;21.73;15.05;;;10.10;99.90;;;;;;4996182;28;20380;-82
2023/03/20 01:56:49;;;;;;;24.77;16.30;;;10.10;99.90;;;;;;5012435;28;20187;-82
2023/03/20 01:59:25;;;;;;;24.07;17.73;;;10.00;99.90;;;;;;5013688;28;20159;-83
2023/03/20 02:01:51;;;;;;;26.35;17.23;;;9.90;99.90;;;;;;5013602;28;20174;-83
2023/03/20 02:04:22;;;;;;;25.13;16.85;;;9.90;99.90;;;;;;5014058;28;20163;-83
2023/03/20 02:06:48;;;;;;;25.47;17.73;;;9.80;99.90;;;;;;5013594;28;20215;-83
2023/03/20 02:09:15;;;;;;;23.90;17.70;;;9.70;99.90;;;;;;5013472;28;20618;-83
2023/03/20 02:11:44;;;;;;;27.67;18.00;;;9.60;99.90;;;;;;5013751;28;20172;-83
2023/03/20 02:14:10;;;;;;;26.93;17.83;;;9.40;99.90;;;;;;5013630;28;20167;-84
2023/03/20 02:16:36;;;;;;;26.70;17.53;;;9.40;99.90;;;;;;5013624;28;20278;-83
2023/03/20 02:19:03;;;;;;;26.53;17.13;;;9.20;99.90;;;;;;5013515;28;20182;-83
2023/03/20 02:21:47;;;;;;;28.30;18.07;;;9.10;99.90;;;;;;5027664;28;20186;-83
2023/03/20 02:24:40;;;;;;;30.37;18.07;;;9.10;99.90;;;;;;5033139;28;20170;-83
2023/03/20 02:27:21;;;;;;;33.30;18.77;;;9.10;99.90;;;;;;5033222;28;20647;-83
2023/03/20 02:30:08;;;;;;;30.33;18.17;;;9.00;99.90;;;;;;5032930;28;20230;-83
2023/03/20 02:32:55;;;;;;;35.43;19.83;;;9.00;99.90;;;;;;5033082;28;20169;-84
2023/03/20 02:35:41;;;;;;;34.20;19.73;;;9.10;99.90;;;;;;5032862;28;20249;-83
2023/03/20 02:38:10;;;;;;;36.40;19.07;;;9.10;99.90;;;;;;5031736;28;20178;-84
2023/03/20 02:40:58;;;;;;;35.17;19.60;;;9.10;99.90;;;;;;5033159;28;20163;-83
2023/03/20 02:43:52;;;;;;;35.47;21.00;;;9.10;99.90;;;;;;5032938;28;20165;-83
2023/03/20 02:46:45;;;;;;;34.97;19.87;;;9.10;99.90;;;;;;5032860;28;20545;-83
2023/03/20 02:49:19;;;;;;;35.50;19.87;;;9.10;99.90;;;;;;5015094;28;20179;-83
2023/03/20 02:52:31;;;;;;;37.63;20.70;;;9.00;99.90;;;;;;5017306;28;20241;-84
2023/03/20 02:55:24;;;;;;;36.37;19.63;;;9.00;99.90;;;;;;5036447;28;20194;-83
2023/03/20 02:57:58;;;;;;;34.50;17.20;;;9.10;99.90;;;;;;5036315;28;20249;-83
2023/03/20 03:00:51;;;;;;;37.92;20.27;;;9.10;99.90;;;;;;5036332;28;20162;-83
2023/03/20 03:03:23;;;;;;;39.77;20.27;;;9.10;99.90;;;;;;5018389;28;20178;-83
2023/03/20 03:06:01;;;;;;;31.80;18.35;;;9.10;99.90;;;;;;5035868;28;20540;-83
2023/03/20 03:08:32;;;;;;;39.70;19.80;;;9.10;99.90;;;;;;5018614;28;20209;-83
2023/03/20 03:11:04;;;;;;;39.80;19.73;;;9.20;99.90;;;;;;5036150;28;20167;-82
2023/03/20 03:13:34;;;;;;;42.87;20.77;;;9.10;99.90;;;;;;5018299;28;20178;-83
2023/03/20 03:16:05;;;;;;;38.17;20.23;;;9.10;99.90;;;;;;5018315;28;20177;-83
2023/03/20 03:18:34;;;;;;;39.47;20.15;;;9.20;99.90;;;;;;5034909;28;20189;-83
2023/03/20 03:21:02;;;;;;;39.60;20.25;;;9.10;99.90;;;;;;5017536;28;20193;-84
2023/03/20 03:23:33;;;;;;;45.47;21.17;;;9.10;99.90;;;;;;5018113;28;20191;-83
2023/03/20 03:26:01;;;;;;;48.67;21.52;;;9.20;99.90;;;;;;5035893;28;20163;-82
2023/03/20 03:28:46;;;;;;;41.80;21.63;;;9.10;99.90;;;;;;5018019;28;20186;-83
2023/03/20 03:31:16;;;;;;;42.47;20.50;;;9.10;99.90;;;;;;5035697;28;20170;-83
2023/03/20 03:33:45;;;;;;;40.73;21.40;;;9.10;99.90;;;;;;5035807;28;20181;-84
2023/03/20 03:36:20;;;;;;;42.50;20.53;;;9.20;99.90;;;;;;5035575;28;20609;-83
2023/03/20 03:38:53;;;;;;;39.33;20.43;;;9.10;99.90;;;;;;5035727;28;20253;-83
2023/03/20 03:41:29;;;;;;;48.07;21.93;;;9.00;99.90;;;;;;5034136;28;20178;-82
2023/03/20 03:44:10;;;;;;;40.85;20.52;;;9.10;99.90;;;;;;5034376;28;20585;-83
2023/03/20 03:47:01;;;;;;;41.13;20.38;;;9.10;99.90;;;;;;5035672;28;20190;-84
2023/03/20 03:49:31;;;;;;;41.35;21.25;;;9.10;99.90;;;;;;5035466;28;20202;-83
2023/03/20 03:52:02;;;;;;;41.27;20.77;;;9.10;99.90;;;;;;5017022;28;20559;-84
2023/03/20 03:54:37;;;;;;;42.72;21.33;;;9.10;99.90;;;;;;5035522;28;20655;-82
2023/03/20 03:57:06;;;;;;;41.13;19.80;;;9.10;99.90;;;;;;5035442;28;20154;-83
2023/03/20 03:59:39;;;;;;;46.55;22.13;;;9.10;99.90;;;;;;5034887;28;20190;-83
2023/03/20 04:02:07;;;;;;;44.35;21.45;;;9.20;99.90;;;;;;5032811;28;20648;-84
2023/03/20 04:04:36;;;;;;;42.05;20.77;;;9.20;99.90;;;;;;5017487;28;20175;-83
2023/03/20 04:07:02;;;;;;;43.80;22.10;;;9.20;99.90;;;;;;5034955;28;20202;-83
2023/03/20 04:09:28;;;;;;;46.88;22.30;;;9.20;99.90;;;;;;5034968;28;20194;-83
2023/03/20 04:11:54;;;;;;;54.72;22.05;;;9.20;99.90;;;;;;5035061;28;20171;-83
2023/03/20 04:14:19;;;;;;;43.25;21.58;;;9.30;99.90;;;;;;5033778;28;20519;-83
2023/03/20 04:16:45;;;;;;;44.28;21.77;;;9.30;99.90;;;;;;5035145;28;20174;-83
2023/03/20 04:19:11;;;;;;;37.47;20.38;;;9.20;99.90;;;;;;5033758;28;20214;-83
2023/03/20 04:21:37;;;;;;;39.40;19.95;;;9.20;99.90;;;;;;5016778;28;20697;-82
2023/03/20 04:24:03;;;;;;;44.78;19.95;;;9.30;99.90;;;;;;5034865;28;20232;-83
2023/03/20 04:26:29;;;;;;;44.38;20.88;;;9.20;99.90;;;;;;5034712;28;20600;-83
2023/03/20 04:28:55;;;;;;;42.58;20.73;;;9.20;99.90;;;;;;5034726;28;20228;-83
2023/03/20 04:31:21;;;;;;;41.58;21.13;;;9.10;99.90;;;;;;5016708;28;20561;-83
2023/03/20 04:33:47;;;;;;;38.58;20.88;;;9.10;99.90;;;;;;5016866;28;20182;-83
2023/03/20 04:36:13;;;;;;;38.67;19.70;;;9.10;99.90;;;;;;5034467;28;20167;-83
2023/03/20 04:38:38;;;;;;;41.67;21.48;;;9.10;99.90;;;;;;5034582;28;20179;-83
2023/03/20 04:41:04;;;;;;;40.80;20.10;;;9.10;99.90;;;;;;5016454;28;20189;-83
2023/03/20 04:43:30;;;;;;;41.65;20.48;;;9.10;99.90;;;;;;5034347;28;20171;-83
2023/03/20 04:45:56;;;;;;;47.10;19.75;;;9.10;99.90;;;;;;5034292;28;20171;-84
2023/03/20 04:48:22;;;;;;;38.85;19.13;;;9.10;99.90;;;;;;5033882;28;20194;-83
2023/03/20 04:50:49;;;;;;;33.50;18.48;;;9.00;99.90;;;;;;5033700;28;20715;-83
2023/03/20 04:53:16;;;;;;;36.33;17.55;;;9.10;99.90;;;;;;5032955;28;20265;-83
2023/03/20 04:55:42;;;;;;;39.00;19.52;;;9.00;99.90;;;;;;5016556;28;20174;-83
2023/03/20 04:58:08;;;;;;;42.28;18.60;;;9.00;99.90;;;;;;5034065;28;20250;-83
2023/03/20 05:00:34;;;;;;;35.15;18.30;;;8.90;99.90;;;;;;5016008;28;20194;-83
2023/03/20 05:03:00;;;;;;;37.15;18.17;;;8.90;99.90;;;;;;5033853;28;20178;-83
2023/03/20 05:05:26;;;;;;;36.05;18.60;;;8.90;99.90;;;;;;5032550;28;20177;-83
2023/03/20 05:07:51;;;;;;;31.75;16.77;;;8.80;99.90;;;;;;5032702;28;20241;-83
2023/03/20 05:10:17;;;;;;;38.97;18.35;;;8.80;99.90;;;;;;5033759;28;20182;-83
2023/03/20 05:12:44;;;;;;;35.33;17.83;;;8.70;99.90;;;;;;5033544;28;20190;-83
2023/03/20 05:15:10;;;;;;;36.50;16.83;;;8.70;99.90;;;;;;5033900;28;20159;-83
2023/03/20 05:17:35;;;;;;;37.58;17.67;;;8.60;99.90;;;;;;5033843;28;20173;-83
2023/03/20 05:20:01;;;;;;;35.33;16.95;;;8.60;99.90;;;;;;5016090;28;20213;-83
2023/03/20 05:22:27;;;;;;;31.30;15.77;;;8.60;99.90;;;;;;5032389;28;20589;-83
2023/03/20 05:24:52;;;;;;;35.37;16.27;;;8.50;99.90;;;;;;5016111;28;20240;-83
2023/03/20 05:27:19;;;;;;;28.87;13.83;;;8.40;99.90;;;;;;5033788;28;20260;-82
2023/03/20 05:29:44;;;;;;;28.83;13.93;;;8.40;99.90;;;;;;5033632;28;20173;-82
2023/03/20 05:32:11;;;;;;;28.70;14.77;;;8.40;99.90;;;;;;5032441;28;20269;-82
2023/03/20 05:34:37;;;;;;;32.00;14.97;;;8.30;99.90;;;;;;5032529;28;20274;-83
2023/03/20 05:37:03;;;;;;;27.30;13.30;;;8.30;99.90;;;;;;5033599;28;20229;-81
2023/03/20 05:39:29;;;;;;;30.87;14.53;;;8.30;99.90;;;;;;5015796;28;20549;-82
2023/03/20 05:41:55;;;;;;;27.60;13.70;;;8.30;99.90;;;;;;5033565;28;20175;-82
2023/03/20 05:44:20;;;;;;;25.73;13.13;;;8.30;99.90;;;;;;5033557;28;20628;-83
2023/03/20 05:46:46;;;;;;;26.67;13.40;;;8.30;99.90;;;;;;5033579;28;20687;-83
2023/03/20 05:49:11;;;;;;;28.88;13.85;;;8.40;99.90;;;;;;5032286;28;20636;-83
2023/03/20 05:51:37;;;;;;;28.00;13.77;;;8.40;99.90;;;;;;5033482;28;20605;-83
2023/03/20 05:54:03;;;;;;;29.77;13.97;;;8.40;99.90;;;;;;5032468;28;20186;-83
2023/03/20 05:56:29;;;;;;;26.80;12.83;;;8.50;99.90;;;;;;5033457;28;20178;-83
2023/03/20 05:58:55;;;;;;;25.27;12.97;;;8.50;99.90;;;;;;5015586;28;20617;-83
2023/03/20 06:01:21;;;;;;;23.90;12.77;;;8.50;99.90;;;;;;5033251;28;20175;-83
2023/03/20 06:03:47;;;;;;;23.08;13.45;;;8.60;99.90;;;;;;5033479;28;20609;-84
2023/03/20 06:06:15;;;;;;;28.88;13.00;;;8.70;99.90;;;;;;5015700;28;20256;-83
2023/03/20 06:08:41;;;;;;;27.60;13.27;;;8.70;99.90;;;;;;5033266;28;20189;-83
2023/03/20 06:11:08;;;;;;;27.35;13.93;;;8.80;99.90;;;;;;5032938;28;20216;-84
2023/03/20 06:13:33;;;;;;;29.80;14.13;;;8.80;99.90;;;;;;5033175;28;20499;-83
2023/03/20 06:15:59;;;;;;;29.27;14.73;;;8.90;99.90;;;;;;5033370;28;20285;-84
2023/03/20 06:18:25;;;;;;;28.10;14.05;;;8.90;99.90;;;;;;5032079;28;20216;-83
2023/03/20 06:20:56;;;;;;;30.27;14.67;;;9.00;99.90;;;;;;5031896;28;20201;-84
2023/03/20 06:23:22;;;;;;;27.33;14.70;;;9.00;99.90;;;;;;5032767;28;20606;-83
2023/03/20 06:25:48;;;;;;;28.38;14.05;;;9.00;99.90;;;;;;5034722;28;20570;-84
2023/03/20 06:28:14;;;;;;;29.93;14.97;;;9.10;99.90;;;;;;5019166;28;20218;-83
2023/03/20 06:30:40;;;;;;;32.38;15.57;;;9.10;99.90;;;;;;5019049;28;20178;-84
2023/03/20 06:33:06;;;;;;;28.42;14.80;;;9.10;99.90;;;;;;5019174;28;20231;-84
2023/03/20 06:35:32;;;;;;;28.77;14.90;;;9.10;99.90;;;;;;5019301;28;20558;-85
2023/03/20 06:37:58;;;;;;;27.53;14.53;;;9.20;99.90;;;;;;5036798;28;20256;-83
2023/03/20 06:40:26;;;;;;;29.60;14.55;;;9.30;99.90;;;;;;5036346;28;20194;-83
2023/03/20 06:42:53;;;;;;;26.55;15.63;;;9.30;99.90;;;;;;5036702;28;20194;-83
2023/03/20 06:45:19;;;;;;;28.27;14.73;;;9.30;99.90;;;;;;5036838;28;20197;-83
2023/03/20 06:47:48;;;;;;;31.50;15.13;;;9.30;99.90;;;;;;5036677;28;20199;-84
2023/03/20 06:50:14;;;;;;;27.35;15.20;;;9.40;99.90;;;;;;5036299;28;20641;-82
2023/03/20 06:52:40;;;;;;;25.67;14.55;;;9.40;99.90;;;;;;5036396;28;20508;-83
2023/03/20 06:55:06;;;;;;;30.65;15.52;;;9.40;99.90;;;;;;5035074;28;20236;-84
2023/03/20 06:57:32;;;;;;;30.27;14.82;;;9.40;99.90;;;;;;5036511;28;20255;-84
2023/03/20 06:59:58;;;;;;;29.53;14.97;;;9.40;99.90;;;;;;5018511;28;20672;-83
2023/03/20 07:02:25;;;;;;;30.07;15.27;;;9.40;99.90;;;;;;5035173;28;20598;-83
2023/03/20 07:04:51;;;;;;;29.77;15.35;;;9.40;99.90;;;;;;5035138;28;20274;-83
2023/03/20 07:07:17;;;;;;;28.67;14.90;;;9.40;99.90;;;;;;5018483;28;20206;-83
2023/03/20 07:09:44;;;;;;;28.60;15.60;;;9.40;99.90;;;;;;5034638;28;20202;-84
2023/03/20 07:12:13;;;;;;;31.17;15.20;;;9.40;99.90;;;;;;5034773;28;20582;-83
2023/03/20 07:14:40;;;;;;;27.88;14.55;;;9.40;99.90;;;;;;5036266;28;20563;-84
2023/03/20 07:17:07;;;;;;;28.50;14.85;;;9.40;99.90;;;;;;5036335;28;20197;-84
2023/03/20 07:19:34;;;;;;;32.45;15.38;;;9.40;99.90;;;;;;5018071;28;20214;-82
2023/03/20 07:22:03;;;;;;;32.05;15.52;;;9.40;99.90;;;;;;5035959;28;20186;-84
2023/03/20 07:24:30;;;;;;;34.58;17.00;;;9.40;99.90;;;;;;5035787;28;20588;-83
2023/03/20 07:26:56;;;;;;;30.77;14.97;;;9.40;99.90;;;;;;5018238;28;20310;-83
2023/03/20 07:29:21;;;;;;;32.67;16.83;;;9.40;99.90;;;;;;5034696;28;20261;-83
2023/03/20 07:31:47;;;;;;;33.20;16.27;;;9.50;99.90;;;;;;5013935;28;20587;-83
2023/03/20 07:34:13;;;;;;;27.52;14.75;;;9.40;99.90;;;;;;4998236;28;20187;-82
2023/03/20 07:36:40;;;;;;;31.65;16.00;;;9.50;99.90;;;;;;5015724;28;20209;-82
2023/03/20 07:39:07;;;;;;;32.47;15.88;;;9.50;99.90;;;;;;5015455;28;20537;-82
2023/03/20 07:41:32;;;;;;;29.50;14.77;;;9.50;99.90;;;;;;4997950;28;20178;-82
2023/03/20 07:43:58;;;;;;;34.10;16.40;;;9.50;99.90;;;;;;4998218;28;20179;-82
2023/03/20 07:46:25;;;;;;;35.37;15.63;;;9.60;99.90;;;;;;5014403;28;20647;-82
2023/03/20 07:48:51;;;;;;;31.15;15.57;;;9.50;99.90;;;;;;5014094;28;20171;-83
2023/03/20 07:51:17;;;;;;;28.48;16.08;;;9.50;99.90;;;;;;4997836;28;20230;-84
2023/03/20 07:53:43;;;;;;;33.65;16.58;;;9.50;99.90;;;;;;5015016;28;20187;-83
2023/03/20 07:56:09;;;;;;;34.30;16.67;;;9.60;99.90;;;;;;5035275;28;20171;-82
2023/03/20 07:58:35;;;;;;;32.50;17.02;;;9.60;99.90;;;;;;5035357;28;20167;-83
2023/03/20 08:01:02;;;;;;;30.92;15.20;;;9.60;99.90;;;;;;5035232;28;20177;-83
2023/03/20 08:03:28;;;;;;;31.20;15.55;;;9.60;99.90;;;;;;5035420;28;20597;-84
2023/03/20 08:05:54;;;;;;;30.77;15.73;;;9.60;99.90;;;;;;5035150;28;20225;-84
2023/03/20 08:08:20;;;;;;;30.50;14.85;;;9.60;99.90;;;;;;5034054;28;20272;-84
2023/03/20 08:10:46;;;;;;;35.03;16.15;;;9.70;99.90;;;;;;5034773;28;20253;-83
2023/03/20 08:13:12;;;;;;;30.10;15.52;;;9.80;99.90;;;;;;5033844;28;20186;-84
2023/03/20 08:15:37;;;;;;;34.00;17.65;;;9.80;99.90;;;;;;5035117;28;20703;-85
2023/03/20 08:18:03;;;;;;;32.55;16.08;;;9.80;99.90;;;;;;5034988;28;20166;-83
2023/03/20 08:20:30;;;;;;;28.38;16.27;;;9.80;99.90;;;;;;5034803;28;20253;-85
2023/03/20 08:22:56;;;;;;;36.53;17.35;;;9.90;99.90;;;;;;5034741;28;20205;-83
2023/03/20 08:25:22;;;;;;;30.30;16.33;;;9.80;99.90;;;;;;5016913;28;20174;-85
2023/03/20 08:27:48;;;;;;;35.13;17.67;;;9.80;99.90;;;;;;5033544;28;20220;-84
2023/03/20 08:30:14;;;;;;;35.05;17.42;;;9.80;99.90;;;;;;5034638;28;20514;-84
2023/03/20 08:32:40;;;;;;;31.50;16.87;;;9.80;99.90;;;;;;5016830;28;20245;-84
2023/03/20 08:35:07;;;;;;;31.10;17.70;;;9.80;99.90;;;;;;5034538;28;20178;-84
2023/03/20 08:37:34;;;;;;;34.60;18.40;;;9.70;99.90;;;;;;5034934;28;20601;-84
2023/03/20 08:40:00;;;;;;;38.00;19.23;;;9.80;99.90;;;;;;5016422;28;20629;-84
2023/03/20 08:42:25;;;;;;;38.72;18.23;;;9.90;99.90;;;;;;5033375;28;20186;-83
2023/03/20 08:44:51;;;;;;;33.90;17.38;;;9.80;99.90;;;;;;5034493;28;20187;-83
2023/03/20 08:47:17;;;;;;;36.97;19.25;;;9.80;99.90;;;;;;5033938;28;20344;-83
2023/03/20 08:49:43;;;;;;;37.67;19.20;;;10.00;99.90;;;;;;5034000;28;20620;-84
2023/03/20 08:52:09;;;;;;;37.95;18.73;;;10.20;99.90;;;;;;5016521;28;20620;-84
2023/03/20 08:54:34;;;;;;;33.50;17.30;;;10.30;99.90;;;;;;5033501;28;20206;-83
2023/03/20 08:57:00;;;;;;;34.47;18.23;;;10.40;99.90;;;;;;5034330;28;20213;-85
2023/03/20 08:59:26;;;;;;;36.55;16.60;;;10.40;99.90;;;;;;5034270;28;20259;-87
2023/03/20 09:01:52;;;;;;;30.58;15.80;;;10.40;99.90;;;;;;5016018;28;20193;-84
2023/03/20 09:04:18;;;;;;;27.75;14.52;;;10.40;99.90;;;;;;5034019;28;20174;-85
2023/03/20 09:06:44;;;;;;;25.60;14.38;;;10.40;99.90;;;;;;5016392;28;20264;-84
2023/03/20 09:09:10;;;;;;;23.58;13.70;;;10.30;99.90;;;;;;5032392;28;20249;-84
2023/03/20 09:11:36;;;;;;;23.33;13.00;;;10.40;99.90;;;;;;5033978;28;20320;-84
2023/03/20 09:14:02;;;;;;;23.17;14.07;;;10.30;99.90;;;;;;5034021;28;20232;-84
2023/03/20 09:16:27;;;;;;;24.00;13.95;;;10.40;99.90;;;;;;5021967;28;20195;-83
2023/03/20 09:18:53;;;;;;;21.63;13.20;;;10.40;99.90;;;;;;5013260;28;20194;-82
2023/03/20 09:21:19;;;;;;;21.33;11.80;;;10.40;99.90;;;;;;5013164;28;20175;-83
2023/03/20 09:23:46;;;;;;;24.35;12.98;;;10.50;99.90;;;;;;5029866;28;20240;-84
2023/03/20 09:26:11;;;;;;;24.40;13.00;;;10.50;99.90;;;;;;5032054;28;20187;-84
2023/03/20 09:28:37;;;;;;;24.05;13.18;;;10.60;99.90;;;;;;5033551;28;20190;-86
2023/03/20 09:31:03;;;;;;;19.75;11.40;;;10.60;99.90;;;;;;5015921;28;20185;-85
2023/03/20 09:33:29;;;;;;;19.65;10.77;;;10.60;99.90;;;;;;5033637;28;20245;-84
2023/03/20 09:35:55;;;;;;;17.80;10.68;;;10.60;99.90;;;;;;5033518;28;20167;-84
2023/03/20 09:38:21;;;;;;;21.13;11.48;;;10.60;99.90;;;;;;5016016;28;20181;-84
2023/03/20 09:40:59;;;;;;;19.45;10.52;;;10.50;99.90;;;;;;5033287;28;20640;-84
2023/03/20 09:43:48;;;;;;;19.02;10.88;;;10.50;99.90;;;;;;5033437;28;20170;-85
2023/03/20 09:46:29;;;;;;;17.75;11.38;;;10.40;99.90;;;;;;5033265;28;20170;-84
2023/03/20 09:49:27;;;;;;;18.52;10.38;;;10.40;99.90;;;;;;5032100;28;20185;-83
2023/03/20 09:51:59;;;;;;;16.77;10.38;;;10.40;99.90;;;;;;5032602;28;20230;-84
2023/03/20 09:54:39;;;;;;;17.45;9.55;;;10.40;99.90;;;;;;5032911;28;20209;-85
2023/03/20 09:57:14;;;;;;;15.38;10.02;;;10.40;99.90;;;;;;5015763;28;20182;-84
2023/03/20 09:59:40;;;;;;;16.27;10.00;;;10.40;99.90;;;;;;5015215;28;20588;-83
2023/03/20 10:02:29;;;;;;;16.33;10.38;;;10.30;99.90;;;;;;5037259;28;20178;-84
2023/03/20 10:04:54;;;;;;;16.23;10.35;;;10.30;99.90;;;;;;5037438;28;20593;-83
2023/03/20 10:07:21;;;;;;;17.90;9.50;;;10.30;99.90;;;;;;5037442;28;20198;-84
2023/03/20 10:09:47;;;;;;;15.48;9.65;;;10.30;99.90;;;;;;5036970;28;20166;-84
2023/03/20 10:12:36;;;;;;;16.30;10.18;;;10.30;99.90;;;;;;5037214;28;20175;-84
2023/03/20 10:15:27;;;;;;;17.15;10.43;;;10.30;99.90;;;;;;5037063;28;20193;-84
2023/03/20 10:18:20;;;;;;;17.30;10.48;;;10.30;99.90;;;;;;5037217;28;20170;-84
2023/03/20 10:20:55;;;;;;;15.07;9.43;;;10.20;99.90;;;;;;5037473;28;20691;-84
2023/03/20 10:23:41;;;;;;;17.30;10.27;;;10.20;99.90;;;;;;5035251;28;20182;-84
2023/03/20 10:26:13;;;;;;;14.63;8.75;;;10.20;99.90;;;;;;5036780;28;20194;-84
2023/03/20 10:28:51;;;;;;;15.52;10.35;;;10.10;99.90;;;;;;5037308;28;20181;-84
2023/03/20 10:31:35;;;;;;;20.63;11.52;;;10.10;99.90;;;;;;5036862;28;20221;-83
2023/03/20 10:34:21;;;;;;;16.42;10.88;;;10.10;99.90;;;;;;5036981;28;20212;-85
2023/03/20 10:37:17;;;;;;;18.92;11.10;;;10.10;99.90;;;;;;5036998;28;20179;-84
2023/03/20 10:39:54;;;;;;;18.83;11.02;;;10.00;99.90;;;;;;5036521;28;20198;-86
2023/03/20 10:42:25;;;;;;;19.33;12.30;;;9.90;99.90;;;;;;5035487;28;20309;-84
2023/03/20 10:44:58;;;;;;;17.65;11.88;;;9.90;99.90;;;;;;5036918;28;20167;-84
2023/03/20 10:47:29;;;;;;;16.63;11.50;;;9.90;99.90;;;;;;5019042;28;20210;-84
2023/03/20 10:50:00;;;;;;;19.52;12.00;;;9.90;99.90;;;;;;5036427;28;20163;-84
2023/03/20 10:52:31;;;;;;;18.95;11.85;;;10.00;99.90;;;;;;5018848;28;20201;-84
2023/03/20 10:55:06;;;;;;;15.68;10.82;;;10.00;99.90;;;;;;5018541;28;20174;-84
2023/03/20 10:57:40;;;;;;;19.20;11.45;;;10.10;99.90;;;;;;5018798;28;20206;-84
2023/03/20 11:00:12;;;;;;;17.90;11.68;;;10.20;99.90;;;;;;5018594;28;20170;-85
2023/03/20 11:02:38;;;;;;;21.37;11.43;;;10.20;99.90;;;;;;5035057;28;20185;-84
2023/03/20 11:05:31;;;;;;;20.75;12.05;;;10.20;99.90;;;;;;5036425;28;20245;-84
2023/03/20 11:08:07;;;;;;;15.50;10.82;;;10.30;99.90;;;;;;5018814;28;20563;-86
2023/03/20 11:10:35;;;;;;;15.52;11.38;;;10.30;99.90;;;;;;5018027;28;20170;-86
2023/03/20 11:13:26;;;;;;;15.15;10.40;;;10.30;99.90;;;;;;5036066;28;20209;-84
2023/03/20 11:15:53;;;;;;;17.42;11.10;;;10.40;99.90;;;;;;5018441;28;20213;-85
2023/03/20 11:18:22;;;;;;;17.52;10.75;;;10.40;99.90;;;;;;5036238;28;20233;-85
2023/03/20 11:20:55;;;;;;;16.95;11.10;;;10.30;99.90;;;;;;5036092;28;20175;-83
2023/03/20 11:23:27;;;;;;;16.77;11.02;;;10.30;99.90;;;;;;5018015;28;20191;-83
2023/03/20 11:25:59;;;;;;;15.32;10.63;;;10.40;99.90;;;;;;5035826;28;20177;-85
2023/03/20 11:28:39;;;;;;;16.83;11.82;;;10.40;99.90;;;;;;5029183;28;20262;-85
2023/03/20 11:31:24;;;;;;;16.33;11.15;;;10.40;99.90;;;;;;4998271;28;20179;-84
2023/03/20 11:34:06;;;;;;;17.60;10.93;;;10.60;99.90;;;;;;4998696;28;20210;-85
2023/03/20 11:36:35;;;;;;;17.05;11.40;;;10.90;99.90;;;;;;5015869;28;20278;-85
2023/03/20 11:39:12;;;;;;;17.10;11.02;;;10.90;99.90;;;;;;5016076;28;20171;-85
2023/03/20 11:41:49;;;;;;;18.40;11.68;;;10.90;99.90;;;;;;4998398;28;20179;-84
2023/03/20 11:44:29;;;;;;;17.77;11.18;;;10.80;99.90;;;;;;5015980;28;20653;-84
2023/03/20 11:47:04;;;;;;;14.13;10.13;;;10.80;99.90;;;;;;5015625;28;20178;-83
2023/03/20 11:49:32;;;;;;;14.68;10.07;;;10.80;99.90;;;;;;4997495;28;20174;-84
2023/03/20 11:52:10;;;;;;;13.73;9.45;;;10.80;99.90;;;;;;5000197;28;20826;-84
2023/03/20 11:54:50;;;;;;;13.90;8.95;;;10.70;99.90;;;;;;5033837;28;20183;-83
2023/03/20 11:57:37;;;;;;;12.35;8.80;;;10.60;99.90;;;;;;5033391;28;20245;-91
2023/03/20 12:00:36;;;;;;;13.85;9.10;;;10.60;99.90;;;;;;5035186;28;20159;-83
2023/03/20 12:03:03;;;;;;;11.00;7.65;;;10.70;99.90;;;;;;5033615;28;20241;-84
2023/03/20 12:05:42;;;;;;;11.80;8.57;;;11.00;99.90;;;;;;5017491;28;20179;-83
2023/03/20 12:08:31;;;;;;;14.55;9.68;;;11.30;99.90;;;;;;5033076;28;20209;-84
2023/03/20 12:11:24;;;;;;;14.88;9.45;;;11.50;99.90;;;;;;5034274;28;20620;-84
2023/03/20 12:13:53;;;;;;;14.52;9.82;;;11.50;99.90;;;;;;5003559;28;20282;-85
2023/03/20 12:16:26;;;;;;;16.08;10.80;;;11.50;99.90;;;;;;5035091;28;20209;-87
2023/03/20 12:19:04;;;;;;;15.02;10.40;;;11.40;99.90;;;;;;5016866;28;20190;-84
2023/03/20 12:21:47;;;;;;;14.20;9.70;;;11.20;99.90;;;;;;5033525;28;20174;-85
2023/03/20 12:24:36;;;;;;;14.75;9.80;;;11.10;99.90;;;;;;5032335;28;20583;-84
2023/03/20 12:27:20;;;;;;;15.90;10.63;;;10.90;99.90;;;;;;5034724;28;20170;-85
2023/03/20 12:30:03;;;;;;;17.52;11.20;;;10.90;99.90;;;;;;5033842;28;20167;-85
2023/03/20 12:32:43;;;;;;;13.18;9.30;;;11.00;99.90;;;;;;5034662;28;20550;-84
2023/03/20 12:35:31;;;;;;;12.80;9.00;;;11.10;99.90;;;;;;5017062;28;20266;-85
2023/03/20 12:37:57;;;;;;;12.00;9.27;;;11.10;99.90;;;;;;5034462;28;20302;-85
2023/03/20 12:40:49;;;;;;;13.98;8.77;;;11.10;99.90;;;;;;5033433;28;20174;-84
2023/03/20 12:43:21;;;;;;;13.18;8.70;;;11.10;99.90;;;;;;5016177;28;20254;-85
2023/03/20 12:45:57;;;;;;;18.27;10.23;;;11.10;99.90;;;;;;5034662;28;20177;-85
2023/03/20 12:48:35;;;;;;;10.80;8.00;;;11.20;99.90;;;;;;5033988;28;20527;-84
2023/03/20 12:51:14;;;;;;;9.63;7.28;;;11.40;99.90;;;;;;5014864;28;20233;-85
2023/03/20 12:54:03;;;;;;;10.63;6.78;;;11.30;99.90;;;;;;5031007;28;20167;-85
2023/03/20 12:56:51;;;;;;;10.45;6.53;;;11.30;99.90;;;;;;5031968;28;20256;-85
2023/03/20 12:59:35;;;;;;;9.98;5.82;;;11.20;99.90;;;;;;5015554;28;20185;-86